ウェーク島 の空港の天気 - METARとTAF

ウェーク島空軍基地 ( PWAK / AWK ) - 合衆国領有小離島 ウェーク島
飛行場実況気象(Metar)
観測時間09/19 05:58 WAKT (09/18 17:58 UTC)
風向・風速北北東 2m/s
視程10km以上
天気現象
なし
気温27.6℃
湿度79%
気圧1010.8hPa
METARPWAK 181758Z AUTO 03004KT 9999 CLR 28/24 A2983 RMK AO2 SLP108 T02760236 10276 20264 $
過去の天気等 Google飛行場航空写真 Wunderground天気予報

過去48時間のMETAR

飛行場予報(TAF)
データがありません